createdAt,value
2018-07-09T00:01:14.210Z,4.50
2018-07-09T00:03:42.529Z,3.90
2018-07-09T00:06:10.822Z,3.90
2018-07-09T00:08:39.085Z,3.87
2018-07-09T00:11:08.182Z,3.93
2018-07-09T00:13:37.601Z,4.57
2018-07-09T00:16:05.915Z,4.00
2018-07-09T00:18:34.250Z,4.07
2018-07-09T16:28:54.426Z,1.40
2018-07-09T16:31:22.935Z,1.83
2018-07-09T16:33:51.202Z,1.37
2018-07-09T16:36:19.515Z,1.00
2018-07-09T16:38:47.803Z,1.98
2018-07-09T16:41:16.240Z,4.87
2018-07-09T16:43:44.558Z,6.50
2018-07-09T16:46:13.004Z,2.23
2018-07-09T16:48:41.291Z,2.00
2018-07-09T16:51:09.686Z,1.50
2018-07-09T16:53:38.062Z,1.90
2018-07-09T16:56:06.623Z,2.60
2018-07-09T16:58:34.914Z,1.63
2018-07-09T17:01:03.294Z,1.63
2018-07-09T17:03:31.716Z,1.33
2018-07-09T17:06:00.028Z,1.37
2018-07-09T17:08:28.354Z,1.10
2018-07-09T17:10:56.649Z,1.30
2018-07-09T17:13:24.920Z,1.33
2018-07-09T17:15:53.263Z,1.47
2018-07-09T17:18:21.710Z,1.67
2018-07-09T17:20:49.988Z,1.30
2018-07-09T17:23:18.286Z,1.30
2018-07-09T17:25:46.641Z,10.77
2018-07-09T17:28:15.144Z,4.27
2018-07-09T17:30:43.423Z,3.47
2018-07-09T17:33:11.710Z,2.20
2018-07-09T17:35:40.007Z,2.30
2018-07-09T17:38:08.283Z,1.33
2018-07-09T17:40:36.733Z,1.50
2018-07-09T17:43:05.087Z,1.60
2018-07-09T17:45:33.375Z,1.20
2018-07-09T17:48:01.771Z,1.43
2018-07-09T17:50:30.440Z,1.00
2018-07-09T17:52:58.743Z,1.43
2018-07-09T17:55:27.010Z,1.60
2018-07-09T17:57:55.283Z,1.90
2018-07-09T18:00:23.572Z,1.23
2018-07-09T18:02:51.841Z,1.40
2018-07-09T18:05:20.144Z,1.57
2018-07-09T18:07:48.440Z,3.67
2018-07-09T18:10:17.102Z,1.23
2018-07-09T18:12:45.380Z,2.10
2018-07-09T18:15:13.671Z,1.40
2018-07-09T18:17:42.182Z,1.13
2018-07-09T18:20:10.585Z,1.37
2018-07-09T18:22:38.891Z,1.03
2018-07-09T18:25:08.016Z,1.20
2018-07-09T18:27:36.308Z,1.30
2018-07-09T18:30:04.590Z,1.20
2018-07-09T18:32:32.980Z,1.37
2018-07-09T18:35:01.198Z,1.10
2018-07-09T18:37:29.518Z,1.10
2018-07-09T18:39:57.842Z,1.00
2018-07-09T18:42:26.134Z,1.07
2018-07-09T18:44:54.559Z,1.20
2018-07-09T18:47:22.877Z,1.30
2018-07-09T18:49:51.221Z,1.10
2018-07-09T18:52:19.485Z,1.00
2018-07-09T18:54:48.086Z,1.10
2018-07-09T18:57:16.719Z,1.30
2018-07-09T18:59:44.976Z,1.20
2018-07-09T19:02:13.332Z,1.20
2018-07-09T19:04:41.815Z,0.93
2018-07-09T19:07:11.435Z,1.43
2018-07-09T19:09:40.259Z,1.20
2018-07-09T19:12:09.275Z,1.23
2018-07-09T19:14:41.465Z,1.10
2018-07-09T19:18:20.013Z,1.23
2018-07-09T19:21:29.478Z,1.20
2018-07-09T19:23:56.887Z,1.47
2018-07-09T19:26:24.090Z,1.20
2018-07-09T19:28:51.497Z,1.20
2018-07-09T19:31:18.834Z,1.10
2018-07-09T19:33:46.227Z,1.30
2018-07-09T19:36:13.438Z,1.33
2018-07-09T19:38:40.988Z,1.60
2018-07-09T19:41:08.524Z,2.37
2018-07-09T19:43:36.075Z,2.20
2018-07-09T19:46:03.316Z,1.70
2018-07-09T19:48:30.537Z,1.90
2018-07-09T19:50:57.750Z,1.80
2018-07-09T19:53:24.957Z,1.60
2018-07-09T19:55:52.177Z,1.60
2018-07-09T19:58:19.398Z,1.57
2018-07-09T20:00:46.613Z,1.47
2018-07-09T20:03:13.840Z,1.60
2018-07-09T20:05:41.054Z,1.37
2018-07-09T20:08:08.768Z,1.57
2018-07-09T20:10:41.386Z,1.37
2018-07-09T20:13:15.808Z,1.17
2018-07-09T20:15:48.592Z,1.60
2018-07-09T20:18:15.821Z,1.40
2018-07-09T20:20:43.041Z,1.50
2018-07-09T20:23:10.266Z,1.53
2018-07-09T20:25:37.646Z,1.47
2018-07-09T20:28:04.867Z,1.40
2018-07-09T20:30:32.073Z,1.40
2018-07-09T20:32:59.295Z,1.60
2018-07-09T20:35:26.501Z,1.30
2018-07-09T20:37:53.718Z,1.40
2018-07-09T20:40:20.942Z,1.20
2018-07-09T20:42:48.148Z,1.63
2018-07-09T20:45:15.372Z,1.40
2018-07-09T20:47:42.603Z,1.17
2018-07-09T20:50:09.814Z,1.67
2018-07-09T20:52:37.042Z,1.50
2018-07-09T20:55:04.262Z,1.60
2018-07-09T20:57:31.465Z,1.30
2018-07-09T20:59:58.706Z,1.63
2018-07-09T21:02:25.924Z,2.10
2018-07-09T21:04:53.491Z,1.50
2018-07-09T21:07:20.634Z,1.50
2018-07-09T21:09:47.845Z,1.70
2018-07-09T21:12:15.056Z,1.40
2018-07-09T21:14:42.280Z,1.30
2018-07-09T21:17:09.512Z,1.40
2018-07-09T21:19:36.735Z,1.93
2018-07-09T21:22:04.017Z,1.77
2018-07-09T21:24:31.189Z,1.90
2018-07-09T21:26:58.399Z,1.60
2018-07-09T21:29:25.676Z,1.87
2018-07-09T21:31:52.874Z,1.40
2018-07-09T21:34:21.649Z,2.10
2018-07-09T21:36:48.864Z,1.60
2018-07-09T21:39:16.085Z,2.20
2018-07-09T21:41:43.525Z,1.50
2018-07-09T21:44:10.779Z,1.90
2018-07-09T21:46:38.014Z,1.80
2018-07-09T21:49:07.756Z,1.80
2018-07-09T21:51:35.123Z,1.83
2018-07-09T21:54:02.366Z,1.93
2018-07-09T21:56:29.640Z,1.70
2018-07-09T21:58:56.939Z,1.70
2018-07-09T22:01:24.242Z,1.53
2018-07-09T22:03:51.438Z,1.80
2018-07-09T22:06:18.768Z,1.97
2018-07-09T22:08:46.308Z,1.83
2018-07-09T22:11:13.524Z,2.50
2018-07-09T22:13:40.731Z,1.80
2018-07-09T22:16:08.041Z,1.97
2018-07-09T22:18:35.259Z,2.10
2018-07-09T22:21:02.482Z,1.80
2018-07-09T22:23:29.678Z,1.87
2018-07-09T22:25:56.904Z,1.70
2018-07-09T22:28:24.241Z,1.70
2018-07-09T22:30:52.680Z,1.97
2018-07-09T22:33:21.161Z,1.70
2018-07-09T22:35:49.551Z,1.90
2018-07-09T22:38:17.834Z,1.70
2018-07-09T22:40:46.275Z,1.90
2018-07-09T22:43:26.139Z,2.20
2018-07-09T22:45:54.545Z,1.90
2018-07-09T22:48:22.879Z,1.70
2018-07-09T22:50:51.290Z,2.20
2018-07-09T22:53:19.553Z,1.53
2018-07-09T22:55:59.024Z,1.70
2018-07-09T22:58:27.447Z,2.00
2018-07-09T23:00:55.439Z,1.90
2018-07-09T23:03:23.865Z,1.93
2018-07-09T23:05:52.200Z,2.00
2018-07-09T23:08:20.448Z,1.93
2018-07-09T23:12:58.717Z,2.03
2018-07-09T23:16:42.091Z,2.50
2018-07-09T23:19:27.828Z,4.63
2018-07-09T23:22:21.645Z,11.90
2018-07-09T23:24:48.866Z,18.63
2018-07-09T23:27:16.072Z,10.50
2018-07-09T23:29:43.303Z,5.40
2018-07-09T23:32:10.528Z,3.67
2018-07-09T23:34:37.761Z,2.93
2018-07-09T23:37:04.972Z,3.90
2018-07-09T23:39:32.181Z,2.70
2018-07-09T23:41:59.444Z,2.03
2018-07-09T23:44:26.615Z,1.80
2018-07-09T23:46:53.821Z,2.10
